INFORMACIÓN METAR y TAF
METAR FOR EKVG
ADDS - METARS form results

(0723 UTC 15 April 2021)
Data provider http://aviationweather.gov/metar/data/
 
METAR text: EKVG 150720Z AUTO 15011KT 9999 BKN009/// 07/07 Q1029
Conditions at: EKVG (SORVAAG/VAGAR , DK) observed 0720 UTC 15 April 2021
Temperature: 7.0°C (45°F)
Dewpoint: 7.0°C (45°F) [RH = 100%]
Pressure (altimeter): 30.38 inches Hg (1029.0 mb)
Winds: from the SSE (150 degrees) at 13 MPH (11 knots; 5.7 m/s)
Visibility: 6 or more miles (10+ km)
Ceiling: 900 feet AGL
Clouds: broken clouds at 900 feet AGL
Weather: no significant weather observed at this time

METAR text: EKVG 150650Z AUTO 15009KT 9999 SCT008/// 07/07 Q1029
Conditions at: EKVG (SORVAAG/VAGAR , DK) observed 0650 UTC 15 April 2021
Temperature: 7.0°C (45°F)
Dewpoint: 7.0°C (45°F) [RH = 100%]
Pressure (altimeter): 30.38 inches Hg (1029.0 mb)
Winds: from the SSE (150 degrees) at 10 MPH (9 knots; 4.6 m/s)
Visibility: 6 or more miles (10+ km)
Ceiling: at least 12,000 feet AGL
Clouds: scattered clouds at 800 feet AGL
Weather: no significant weather observed at this time

Forecast for: EKVG (SORVAAG/VAGAR , DK)
Text: TAF EKVG 150523Z 1506/1515 17015KT 9999 SCT020
Forecast period: 0600 to 1500 UTC 15 April 2021
Forecast type: FROM: standard forecast or significant change
Winds: from the S (170 degrees) at 17 MPH (15 knots; 7.7 m/s)
Visibility: 6 or more miles (10+ km)
Ceiling: at least 12,000 feet AGL
Clouds: scattered clouds at 2000 feet AGL
Weather: no significant weather forecast for this period
Text: TEMPO 1506/1510 BKN007
Forecast period: 0600 to 1000 UTC 15 April 2021
Forecast type: TEMPORARY: The following changes expected for less than half the time period
Visibility: missing
Ceiling: 700 feet AGL
Clouds: broken clouds at 700 feet AGL
Weather: no significant weather forecast for this period

 MAPA DE AEROPUERTO

 INFORMACIÓN DE PISTA
Pista 13 Longitud 5902 ft Ancho 98 ft
Elevación 268 ft Umbral desplazado 0 ft Rumbo de pista 118
Pista 31 Longitud 5902 ft Ancho 98 ft
Elevación 252 ft Umbral desplazado 0 ft Rumbo de pista 298

 FRECUANCIAS DEL AEROPUERTO
Tipo AFIS Nombre AFIS Frecuencia 124.85 MHZ

 RADIO AYUDAS DEL AEROPUERTO
Tipo NDB Nombre Myggenes Frecuencia 337 KHZ
Tipo NDB Nombre Nolso Frecuencia 404 KHZ
Tipo NDB Nombre Vagar Frecuencia 348 KHZ



Powered by Virtual Airlines Manager [v2.6.2]